Time;durP1;ratioP1;P1;durP2;ratioP2;P2;SDS_P1;SDS_P2;PMS_P1;PMS_P2;Temp;Humidity;BMP_temperature;BMP_pressure;BME280_temperature;BME280_humidity;BME280_pressure;Samples;Min_cycle;Max_cycle;Signal;HPM_P1;HPM_P2
2022/10/30 00:00:52;;;;;;;31.83;28.20;;;13.40;99.90;;;;;;5042346;28;20248;-44
2022/10/30 00:03:18;;;;;;;37.67;29.40;;;13.40;99.90;;;;;;5036340;28;21984;-47
2022/10/30 00:05:48;;;;;;;30.23;26.97;;;13.40;99.90;;;;;;5050591;28;20192;-49
2022/10/30 00:08:16;;;;;;;37.90;29.27;;;13.40;99.90;;;;;;5034921;28;20232;-46
2022/10/30 00:10:42;;;;;;;32.93;28.17;;;13.40;99.90;;;;;;5050559;28;20431;-46
2022/10/30 00:13:08;;;;;;;31.40;26.90;;;13.40;99.90;;;;;;5023614;28;20525;-49
2022/10/30 00:15:34;;;;;;;31.70;27.03;;;13.40;99.90;;;;;;5039723;28;20531;-44
2022/10/30 00:18:00;;;;;;;31.00;27.33;;;13.40;99.90;;;;;;5036686;28;20471;-53
2022/10/30 00:20:26;;;;;;;35.77;29.13;;;13.30;99.90;;;;;;5033243;28;20933;-47
2022/10/30 00:22:51;;;;;;;31.60;26.83;;;13.30;99.90;;;;;;5029582;28;20660;-48
2022/10/30 00:25:17;;;;;;;32.20;28.87;;;13.30;99.90;;;;;;5029221;28;20228;-46
2022/10/30 00:27:42;;;;;;;30.03;26.90;;;13.30;99.90;;;;;;5006231;28;20208;-50
2022/10/30 00:30:09;;;;;;;30.60;26.37;;;13.20;99.90;;;;;;5004673;28;20241;-44
2022/10/30 00:32:34;;;;;;;32.77;28.20;;;13.20;99.90;;;;;;5004499;28;20181;-45
2022/10/30 00:35:00;;;;;;;31.43;28.00;;;13.20;99.90;;;;;;5006453;28;20476;-49
2022/10/30 00:37:25;;;;;;;30.23;26.97;;;13.20;99.90;;;;;;5009100;28;20215;-44
2022/10/30 00:39:51;;;;;;;30.33;27.00;;;13.20;99.90;;;;;;5013057;28;20646;-46
2022/10/30 00:42:17;;;;;;;31.57;26.70;;;13.20;99.90;;;;;;5013321;28;20242;-46
2022/10/30 00:44:51;;;;;;;31.20;26.80;;;13.20;99.90;;;;;;5012589;28;20195;-47
2022/10/30 00:47:22;;;;;;;33.63;27.80;;;13.20;99.90;;;;;;5019888;28;20658;-45
2022/10/30 00:50:02;;;;;;;30.17;26.83;;;13.20;99.90;;;;;;5027618;28;20436;-49
2022/10/30 00:52:34;;;;;;;31.53;28.07;;;13.20;99.90;;;;;;5031741;28;21446;-50
2022/10/30 00:55:06;;;;;;;31.60;26.73;;;13.20;99.90;;;;;;5031192;28;20439;-45
2022/10/30 00:57:33;;;;;;;31.57;26.57;;;13.20;99.90;;;;;;5040306;28;20443;-48
2022/10/30 00:59:58;;;;;;;29.03;25.93;;;13.30;99.90;;;;;;5037954;28;20451;-46
2022/10/30 01:02:25;;;;;;;32.33;26.23;;;13.30;99.90;;;;;;5029703;28;20479;-46
2022/10/30 01:04:53;;;;;;;29.33;26.23;;;13.30;99.90;;;;;;5035104;28;20455;-49
2022/10/30 01:07:19;;;;;;;30.03;25.23;;;13.20;99.90;;;;;;5020368;28;20769;-47
2022/10/30 01:09:46;;;;;;;29.07;25.77;;;13.20;99.90;;;;;;5037325;28;20452;-45
2022/10/30 01:12:12;;;;;;;29.10;25.10;;;13.20;99.90;;;;;;5028714;28;20450;-47
2022/10/30 01:14:43;;;;;;;30.03;26.90;;;13.20;99.90;;;;;;5032845;28;20463;-44
2022/10/30 01:17:14;;;;;;;33.80;26.63;;;13.20;99.90;;;;;;5036232;28;20450;-45
2022/10/30 01:19:47;;;;;;;31.57;27.10;;;13.20;99.90;;;;;;5020324;28;20440;-46
2022/10/30 01:22:19;;;;;;;29.00;25.90;;;13.10;99.90;;;;;;5036955;28;20443;-45
2022/10/30 01:24:52;;;;;;;29.80;25.93;;;13.10;99.90;;;;;;5029782;28;20575;-48
2022/10/30 01:27:24;;;;;;;30.80;27.40;;;13.10;99.90;;;;;;5033315;28;20439;-46
2022/10/30 01:30:35;;;;;;;29.93;25.93;;;13.10;99.90;;;;;;5041210;28;20499;-44
2022/10/30 01:33:25;;;;;;;29.10;25.17;;;13.10;99.90;;;;;;5040728;28;20442;-48
2022/10/30 01:36:09;;;;;;;27.40;24.50;;;13.10;99.90;;;;;;5039342;28;20472;-48
2022/10/30 01:38:43;;;;;;;31.57;26.70;;;13.00;99.90;;;;;;5042071;28;20502;-45
2022/10/30 01:41:09;;;;;;;28.83;25.70;;;12.90;99.90;;;;;;5033770;28;20481;-47
2022/10/30 01:43:35;;;;;;;29.60;26.10;;;12.90;99.90;;;;;;5021851;28;20503;-47
2022/10/30 01:46:07;;;;;;;28.70;25.67;;;12.90;99.90;;;;;;5030575;28;20185;-48
2022/10/30 01:49:11;;;;;;;30.80;26.50;;;12.90;99.90;;;;;;5031389;28;21047;-47
2022/10/30 01:52:00;;;;;;;31.20;25.80;;;12.90;99.90;;;;;;5028866;28;20447;-45
2022/10/30 01:54:32;;;;;;;30.43;25.23;;;12.90;99.90;;;;;;5048609;28;20451;-44
2022/10/30 01:57:12;;;;;;;28.60;25.40;;;12.90;99.90;;;;;;5040070;28;20440;-44
2022/10/30 02:00:09;;;;;;;30.93;25.03;;;12.90;99.90;;;;;;5036924;28;20414;-49
2022/10/30 02:02:35;;;;;;;31.47;27.07;;;12.90;99.90;;;;;;5025872;28;20877;-43
2022/10/30 02:05:01;;;;;;;30.20;25.37;;;12.90;99.90;;;;;;5028670;28;20439;-43
2022/10/30 02:07:26;;;;;;;27.30;24.40;;;12.90;99.90;;;;;;5041671;28;20530;-44
2022/10/30 02:09:53;;;;;;;27.87;24.13;;;13.00;99.90;;;;;;5032503;28;20427;-44
2022/10/30 02:12:20;;;;;;;29.17;25.60;;;12.90;99.90;;;;;;5033747;28;20188;-46
2022/10/30 02:14:50;;;;;;;30.70;26.03;;;12.90;99.90;;;;;;5028080;28;20449;-44
2022/10/30 02:17:17;;;;;;;31.37;26.80;;;12.90;99.90;;;;;;5029659;28;20467;-44
2022/10/30 02:19:43;;;;;;;34.63;25.50;;;12.90;99.90;;;;;;5028392;28;20434;-46
2022/10/30 02:22:09;;;;;;;33.97;26.30;;;12.90;99.90;;;;;;5030424;28;20436;-47
2022/10/30 02:24:35;;;;;;;30.60;26.03;;;12.80;99.90;;;;;;5029878;28;20932;-48
2022/10/30 02:27:00;;;;;;;29.67;25.00;;;12.80;99.90;;;;;;5026315;28;20435;-46
2022/10/30 02:29:26;;;;;;;28.43;25.47;;;12.80;99.90;;;;;;5034404;28;20216;-48
2022/10/30 02:31:52;;;;;;;28.37;25.43;;;12.70;99.90;;;;;;5038436;28;20220;-49
2022/10/30 02:34:18;;;;;;;29.13;25.90;;;12.70;99.90;;;;;;5037573;28;20465;-48
2022/10/30 02:36:44;;;;;;;29.43;25.27;;;12.70;99.90;;;;;;5037646;28;20436;-43
2022/10/30 02:39:09;;;;;;;31.20;26.53;;;12.70;99.90;;;;;;5041695;28;20441;-47
2022/10/30 02:41:35;;;;;;;29.73;25.37;;;12.70;99.90;;;;;;5037699;28;20190;-50
2022/10/30 02:44:01;;;;;;;30.87;27.20;;;12.70;99.90;;;;;;5037354;28;20197;-46
2022/10/30 02:46:26;;;;;;;29.53;26.57;;;12.70;99.90;;;;;;5043330;28;20179;-44
2022/10/30 02:48:52;;;;;;;28.83;25.73;;;12.70;99.90;;;;;;5032792;28;20740;-45
2022/10/30 02:51:17;;;;;;;30.90;26.30;;;12.70;99.90;;;;;;5037355;28;20653;-45
2022/10/30 02:53:43;;;;;;;30.50;25.60;;;12.70;99.90;;;;;;5038442;28;20187;-44
2022/10/30 02:56:11;;;;;;;32.20;27.10;;;12.70;99.90;;;;;;5047227;28;20191;-46
2022/10/30 02:58:37;;;;;;;32.67;27.80;;;12.70;99.90;;;;;;5044446;28;20453;-46
2022/10/30 03:01:11;;;;;;;32.67;28.77;;;12.70;99.90;;;;;;5038566;28;20440;-45
2022/10/30 03:03:36;;;;;;;30.43;26.50;;;12.70;99.90;;;;;;5030761;28;20612;-47
2022/10/30 03:06:04;;;;;;;30.73;27.43;;;12.70;99.90;;;;;;5039748;28;20434;-48
2022/10/30 03:09:03;;;;;;;29.97;26.67;;;12.70;99.90;;;;;;5043027;28;20553;-47
2022/10/30 03:11:28;;;;;;;30.00;25.67;;;12.70;99.90;;;;;;5032435;28;20502;-43
2022/10/30 03:13:54;;;;;;;32.47;27.00;;;12.80;99.90;;;;;;5033921;28;20526;-45
2022/10/30 03:16:22;;;;;;;30.63;26.03;;;12.80;99.90;;;;;;5035383;28;20293;-50
2022/10/30 03:18:49;;;;;;;32.03;26.07;;;12.80;99.90;;;;;;5048517;28;20585;-45
2022/10/30 03:21:19;;;;;;;27.03;24.13;;;12.80;99.90;;;;;;5042569;28;20472;-45
2022/10/30 03:23:44;;;;;;;27.43;24.37;;;12.90;99.90;;;;;;5032687;28;20599;-46
2022/10/30 03:26:10;;;;;;;28.10;25.10;;;12.90;99.90;;;;;;5034969;28;21185;-47
2022/10/30 03:28:36;;;;;;;26.67;23.77;;;12.90;99.90;;;;;;5043602;28;20465;-44
2022/10/30 03:31:05;;;;;;;28.17;23.90;;;13.00;99.90;;;;;;5045672;28;20675;-47
2022/10/30 03:33:31;;;;;;;28.07;24.63;;;13.00;99.90;;;;;;5040315;28;20199;-44
2022/10/30 03:35:57;;;;;;;28.83;24.43;;;13.00;99.90;;;;;;5036394;28;20471;-46
2022/10/30 03:38:23;;;;;;;26.80;24.00;;;13.10;99.90;;;;;;5036397;28;20437;-46
2022/10/30 03:40:48;;;;;;;26.17;23.10;;;13.20;99.90;;;;;;5045338;28;20888;-48
2022/10/30 03:43:14;;;;;;;26.10;22.83;;;13.20;99.90;;;;;;5041904;28;20212;-47
2022/10/30 03:45:44;;;;;;;27.57;23.30;;;13.10;99.90;;;;;;5038069;28;20216;-45
2022/10/30 03:48:10;;;;;;;26.50;23.07;;;13.20;99.90;;;;;;5043808;28;20226;-45
2022/10/30 03:50:35;;;;;;;27.97;23.93;;;13.20;99.90;;;;;;5043915;28;20433;-50
2022/10/30 03:53:02;;;;;;;26.37;23.20;;;13.20;99.90;;;;;;5039394;28;20270;-50
2022/10/30 03:55:28;;;;;;;27.10;24.03;;;13.20;99.90;;;;;;5031662;28;20204;-47
2022/10/30 03:57:53;;;;;;;26.67;23.23;;;13.30;99.90;;;;;;5047685;28;20770;-45
2022/10/30 04:00:19;;;;;;;25.23;22.33;;;13.30;99.90;;;;;;5046213;28;20188;-45
2022/10/30 04:02:46;;;;;;;27.13;23.33;;;13.30;99.90;;;;;;5041020;28;20185;-47
2022/10/30 04:05:12;;;;;;;26.33;23.53;;;13.30;99.90;;;;;;5036652;28;20878;-45
2022/10/30 04:07:38;;;;;;;25.67;22.90;;;13.30;99.90;;;;;;5034721;28;20601;-45
2022/10/30 04:10:04;;;;;;;25.63;22.20;;;13.30;99.90;;;;;;5033820;28;20536;-47
2022/10/30 04:12:29;;;;;;;26.00;23.27;;;13.30;99.90;;;;;;5031491;28;20195;-44
2022/10/30 04:14:55;;;;;;;26.40;23.43;;;13.30;99.90;;;;;;5040685;28;20797;-47
2022/10/30 04:17:21;;;;;;;27.40;24.23;;;13.30;99.90;;;;;;5044199;28;20195;-44
2022/10/30 04:19:46;;;;;;;27.30;23.17;;;13.30;99.90;;;;;;5031514;28;20432;-47
2022/10/30 04:22:12;;;;;;;29.67;24.27;;;13.30;99.90;;;;;;5037008;28;20184;-46
2022/10/30 04:24:38;;;;;;;27.10;23.50;;;13.20;99.90;;;;;;5029448;28;20188;-46
2022/10/30 04:27:04;;;;;;;26.40;23.63;;;13.10;99.90;;;;;;5042822;28;20269;-47
2022/10/30 04:29:30;;;;;;;25.70;23.00;;;13.20;99.90;;;;;;5030977;28;21180;-46
2022/10/30 04:31:55;;;;;;;28.27;23.90;;;13.10;99.90;;;;;;5034405;28;20442;-44
2022/10/30 04:34:21;;;;;;;33.67;24.20;;;13.10;99.90;;;;;;5046009;28;20315;-44
2022/10/30 04:36:46;;;;;;;27.03;24.13;;;13.10;99.90;;;;;;5036435;28;20182;-48
2022/10/30 04:39:12;;;;;;;26.17;23.43;;;13.00;99.90;;;;;;5046354;28;20191;-48
2022/10/30 04:41:37;;;;;;;25.40;22.80;;;13.00;99.90;;;;;;5038678;28;20195;-48
2022/10/30 04:44:03;;;;;;;26.87;24.00;;;13.00;99.90;;;;;;5029733;28;20228;-45
2022/10/30 04:46:30;;;;;;;26.47;23.67;;;13.00;99.90;;;;;;5020115;28;20196;-44
2022/10/30 04:48:56;;;;;;;29.83;23.27;;;13.00;99.90;;;;;;5023746;28;20219;-44
2022/10/30 04:51:22;;;;;;;27.73;24.73;;;13.00;99.90;;;;;;5016073;28;20456;-48
2022/10/30 04:53:47;;;;;;;29.23;24.40;;;13.00;99.90;;;;;;5041926;28;20443;-48
2022/10/30 04:56:13;;;;;;;26.90;24.00;;;13.00;99.90;;;;;;5031256;28;20924;-45
2022/10/30 04:58:39;;;;;;;27.00;24.20;;;13.00;99.90;;;;;;5032123;28;20566;-45
2022/10/30 05:01:06;;;;;;;26.97;24.30;;;12.90;99.90;;;;;;5028457;28;20667;-45
2022/10/30 05:03:31;;;;;;;27.67;24.77;;;12.90;99.90;;;;;;5023436;28;20444;-46
2022/10/30 05:06:06;;;;;;;28.47;23.60;;;12.80;99.90;;;;;;5040987;28;20436;-45
2022/10/30 05:08:32;;;;;;;26.50;23.60;;;12.80;99.90;;;;;;5028665;28;20561;-46
2022/10/30 05:10:58;;;;;;;27.70;24.80;;;12.80;99.90;;;;;;5025362;28;20438;-45
2022/10/30 05:13:24;;;;;;;26.93;24.03;;;12.80;99.90;;;;;;5044020;28;20424;-44
2022/10/30 05:15:50;;;;;;;27.67;24.77;;;12.80;99.90;;;;;;5030955;28;20805;-45
2022/10/30 05:18:15;;;;;;;27.27;23.90;;;12.70;99.90;;;;;;5030886;28;20550;-45
2022/10/30 05:20:41;;;;;;;28.13;25.13;;;12.70;99.90;;;;;;5038662;28;20199;-45
2022/10/30 05:23:07;;;;;;;29.00;25.90;;;12.70;99.90;;;;;;5028789;28;20202;-44
2022/10/30 05:25:34;;;;;;;29.13;26.23;;;12.70;99.90;;;;;;5041683;28;20186;-49
2022/10/30 05:28:00;;;;;;;28.40;25.40;;;12.80;99.90;;;;;;5028643;28;20506;-45
2022/10/30 05:30:30;;;;;;;27.63;24.87;;;12.80;99.90;;;;;;5026755;28;20444;-49
2022/10/30 05:33:16;;;;;;;26.83;24.20;;;12.80;99.90;;;;;;5025773;28;20472;-49
2022/10/30 05:35:41;;;;;;;27.67;23.87;;;12.80;99.90;;;;;;5035695;28;20978;-48
2022/10/30 05:38:07;;;;;;;27.70;24.70;;;12.80;99.90;;;;;;5025840;28;20445;-49
2022/10/30 05:40:33;;;;;;;27.33;23.60;;;12.80;99.90;;;;;;5033874;28;20248;-46
2022/10/30 05:42:59;;;;;;;27.07;24.17;;;12.80;99.90;;;;;;5028039;28;20307;-47
2022/10/30 05:45:25;;;;;;;26.40;23.60;;;12.80;99.90;;;;;;5038469;28;20445;-44
2022/10/30 05:47:59;;;;;;;26.60;23.40;;;12.90;99.90;;;;;;5030925;28;20475;-46
2022/10/30 05:50:26;;;;;;;25.80;23.10;;;12.90;99.90;;;;;;5039109;28;20185;-46
2022/10/30 05:52:57;;;;;;;27.20;24.40;;;12.90;99.90;;;;;;5031096;28;20839;-44
2022/10/30 05:55:23;;;;;;;29.87;24.13;;;12.90;99.90;;;;;;5039269;28;20487;-46
2022/10/30 05:57:53;;;;;;;26.50;22.07;;;12.90;99.90;;;;;;5043109;28;20445;-44
2022/10/30 06:00:19;;;;;;;25.90;22.90;;;13.00;99.90;;;;;;5043878;28;20440;-45
2022/10/30 06:02:44;;;;;;;26.37;23.67;;;13.00;99.90;;;;;;5032739;28;20450;-45
2022/10/30 06:05:10;;;;;;;25.50;22.40;;;13.10;99.90;;;;;;5041656;28;20672;-48
2022/10/30 06:07:36;;;;;;;26.10;21.87;;;13.10;99.90;;;;;;5041420;28;20207;-46
2022/10/30 06:10:02;;;;;;;24.70;22.03;;;13.20;99.90;;;;;;5040498;28;20306;-46
2022/10/30 06:12:27;;;;;;;24.40;21.93;;;13.30;99.90;;;;;;5033546;28;20500;-51
2022/10/30 06:14:53;;;;;;;25.47;22.27;;;13.30;99.90;;;;;;5027599;28;20197;-46
2022/10/30 06:17:18;;;;;;;24.07;21.67;;;13.30;99.90;;;;;;5033882;28;20191;-46
2022/10/30 06:19:44;;;;;;;24.00;21.50;;;13.40;99.90;;;;;;5048771;28;20196;-45
2022/10/30 06:22:09;;;;;;;23.60;21.10;;;13.40;99.90;;;;;;5043595;28;20418;-47
2022/10/30 06:24:35;;;;;;;24.50;20.80;;;13.40;99.90;;;;;;5032419;28;20189;-46
2022/10/30 06:27:00;;;;;;;25.83;22.57;;;13.50;99.90;;;;;;5035781;28;20199;-46
2022/10/30 06:29:26;;;;;;;25.13;22.53;;;13.50;99.90;;;;;;5041850;28;20198;-46
2022/10/30 06:31:51;;;;;;;28.87;22.77;;;13.50;99.90;;;;;;5042923;28;20248;-47
2022/10/30 06:34:17;;;;;;;26.67;22.90;;;13.50;99.90;;;;;;5038116;28;20238;-46
2022/10/30 06:36:42;;;;;;;24.33;21.93;;;13.50;99.90;;;;;;5037449;28;20203;-50
2022/10/30 06:39:08;;;;;;;25.10;22.50;;;13.50;99.90;;;;;;5033786;28;20203;-47
2022/10/30 06:41:33;;;;;;;25.13;22.60;;;13.50;99.90;;;;;;5039151;28;20199;-48
2022/10/30 06:43:59;;;;;;;24.63;22.13;;;13.50;99.90;;;;;;5040829;28;20203;-45
2022/10/30 06:46:25;;;;;;;25.90;23.20;;;13.50;99.90;;;;;;5042700;28;20302;-44
2022/10/30 06:48:51;;;;;;;23.87;21.30;;;13.50;99.90;;;;;;5023765;28;20478;-49
2022/10/30 06:51:17;;;;;;;24.07;21.33;;;13.60;99.90;;;;;;5039945;28;20895;-47
2022/10/30 06:53:42;;;;;;;24.87;22.40;;;13.70;99.90;;;;;;5034108;28;20404;-45
2022/10/30 06:56:08;;;;;;;24.53;22.00;;;13.70;99.90;;;;;;5026465;28;20186;-46
2022/10/30 06:58:37;;;;;;;24.47;22.00;;;13.80;99.90;;;;;;5031174;28;20200;-45
2022/10/30 07:01:04;;;;;;;26.00;22.30;;;13.80;99.90;;;;;;5027563;28;20870;-50
2022/10/30 07:03:31;;;;;;;25.20;22.63;;;14.00;99.90;;;;;;5028539;28;20482;-46
2022/10/30 07:05:56;;;;;;;25.07;21.90;;;14.00;99.90;;;;;;5038898;28;20851;-46
2022/10/30 07:08:22;;;;;;;24.40;22.10;;;14.00;99.90;;;;;;5035378;28;20468;-44
2022/10/30 07:10:48;;;;;;;24.30;21.23;;;14.00;99.90;;;;;;5040481;28;20642;-49
2022/10/30 07:13:13;;;;;;;25.80;21.33;;;14.10;99.90;;;;;;5032950;28;20280;-45
2022/10/30 07:15:39;;;;;;;24.13;21.70;;;14.10;99.90;;;;;;5025577;28;20196;-49
2022/10/30 07:18:04;;;;;;;24.10;21.70;;;14.20;99.90;;;;;;5025971;28;20194;-44
2022/10/30 07:20:33;;;;;;;24.70;22.20;;;14.20;99.90;;;;;;5021709;28;20302;-51
2022/10/30 07:22:59;;;;;;;25.57;22.87;;;14.30;99.90;;;;;;5029370;28;20471;-44
2022/10/30 07:25:25;;;;;;;23.43;21.13;;;14.40;99.90;;;;;;5042079;28;20467;-46
2022/10/30 07:27:52;;;;;;;24.93;22.50;;;14.40;99.90;;;;;;5043914;28;20547;-44
2022/10/30 07:30:20;;;;;;;25.70;21.17;;;14.50;99.90;;;;;;5040787;28;20275;-45
2022/10/30 07:32:55;;;;;;;24.00;21.60;;;14.50;99.90;;;;;;5046910;28;20555;-44
2022/10/30 07:35:20;;;;;;;24.80;22.37;;;14.60;99.90;;;;;;5031984;28;20498;-46
2022/10/30 07:37:46;;;;;;;23.67;21.20;;;14.60;99.90;;;;;;5033633;28;20450;-45
2022/10/30 07:40:11;;;;;;;24.70;22.00;;;14.70;99.90;;;;;;5032069;28;20644;-44
2022/10/30 07:42:37;;;;;;;23.40;21.00;;;14.80;99.90;;;;;;5035952;28;20208;-45
2022/10/30 07:45:03;;;;;;;24.97;22.37;;;15.20;99.90;;;;;;5037168;28;20635;-47
2022/10/30 07:47:28;;;;;;;23.00;20.77;;;15.40;99.90;;;;;;5038393;28;20194;-46
2022/10/30 07:49:54;;;;;;;22.53;20.10;;;15.70;99.90;;;;;;5034445;28;20566;-49
2022/10/30 07:52:19;;;;;;;22.90;20.50;;;15.80;99.90;;;;;;5024502;28;20182;-46
2022/10/30 07:54:45;;;;;;;26.03;22.27;;;15.90;99.90;;;;;;5038849;28;20224;-45
2022/10/30 07:57:10;;;;;;;24.53;21.93;;;15.80;99.90;;;;;;5031501;28;20201;-49
2022/10/30 07:59:36;;;;;;;22.53;20.27;;;15.90;99.90;;;;;;5033768;28;20212;-45
2022/10/30 08:02:01;;;;;;;22.67;20.30;;;16.00;99.90;;;;;;5027346;28;20251;-46
2022/10/30 08:04:27;;;;;;;23.90;21.40;;;16.10;99.90;;;;;;5028260;28;20185;-46
2022/10/30 08:06:52;;;;;;;24.77;21.97;;;15.90;99.90;;;;;;5035748;28;20207;-47
2022/10/30 08:09:18;;;;;;;24.60;22.03;;;15.70;99.90;;;;;;5032189;28;20333;-46
2022/10/30 08:11:44;;;;;;;24.63;22.03;;;15.70;99.90;;;;;;5042204;28;20675;-45
2022/10/30 08:14:09;;;;;;;23.37;20.87;;;15.60;99.90;;;;;;5030077;28;21280;-48
2022/10/30 08:16:35;;;;;;;25.70;22.60;;;15.80;99.90;;;;;;5037528;28;20192;-46
2022/10/30 08:19:00;;;;;;;24.30;21.80;;;16.00;99.90;;;;;;5030501;28;20200;-52
2022/10/30 08:21:26;;;;;;;23.63;21.20;;;16.30;99.90;;;;;;5037894;28;20277;-47
2022/10/30 08:23:52;;;;;;;23.03;20.80;;;16.50;99.90;;;;;;5028186;28;20194;-49
2022/10/30 08:26:17;;;;;;;24.70;22.20;;;16.30;99.90;;;;;;5040095;28;20435;-49
2022/10/30 08:28:43;;;;;;;24.30;21.60;;;16.10;99.90;;;;;;5033663;28;20208;-48
2022/10/30 08:31:08;;;;;;;24.83;22.33;;;16.30;99.90;;;;;;5025794;28;20272;-45
2022/10/30 08:33:34;;;;;;;25.30;21.30;;;16.40;99.90;;;;;;5037207;28;20199;-49
2022/10/30 08:36:00;;;;;;;24.37;21.73;;;16.60;99.90;;;;;;5031330;28;20227;-48
2022/10/30 08:38:27;;;;;;;23.77;21.47;;;16.70;99.90;;;;;;5032136;28;20706;-46
2022/10/30 08:40:52;;;;;;;23.13;20.80;;;16.80;99.90;;;;;;5039573;28;20733;-46
2022/10/30 08:43:18;;;;;;;23.40;21.10;;;16.90;99.90;;;;;;5029373;28;20448;-46
2022/10/30 08:45:44;;;;;;;23.07;20.80;;;17.10;99.90;;;;;;5038775;28;20186;-48
2022/10/30 08:48:11;;;;;;;23.50;21.20;;;17.60;99.90;;;;;;5046581;28;20214;-45
2022/10/30 08:50:37;;;;;;;24.00;21.53;;;18.10;99.90;;;;;;5040185;28;20185;-49
2022/10/30 08:53:05;;;;;;;22.40;19.80;;;18.50;99.90;;;;;;5040057;28;20573;-47
2022/10/30 08:55:32;;;;;;;22.60;20.30;;;19.10;99.90;;;;;;5036439;28;20190;-46
2022/10/30 08:57:58;;;;;;;22.23;20.10;;;19.60;99.90;;;;;;5034173;28;20453;-45
2022/10/30 09:00:24;;;;;;;22.97;20.87;;;19.90;99.90;;;;;;5042970;28;20465;-45
2022/10/30 09:02:50;;;;;;;21.97;19.87;;;20.20;99.90;;;;;;5034272;28;20420;-45
2022/10/30 09:05:15;;;;;;;21.40;19.37;;;20.60;99.90;;;;;;5035504;28;20444;-45
2022/10/30 09:07:41;;;;;;;21.90;19.90;;;21.00;99.90;;;;;;5034389;28;20198;-46
2022/10/30 09:10:07;;;;;;;21.20;18.80;;;21.40;99.90;;;;;;5038865;28;20189;-47
2022/10/30 09:12:32;;;;;;;22.33;20.23;;;22.20;98.60;;;;;;5026015;28;20232;-47
2022/10/30 09:14:58;;;;;;;22.00;20.13;;;22.80;96.00;;;;;;5045736;28;20448;-50
2022/10/30 09:17:23;;;;;;;21.80;19.90;;;23.40;93.80;;;;;;5049576;28;20239;-46
2022/10/30 09:19:49;;;;;;;22.20;20.40;;;23.60;91.50;;;;;;5038145;28;20186;-48
2022/10/30 09:22:14;;;;;;;21.93;20.13;;;24.30;90.30;;;;;;5029641;28;20204;-48
2022/10/30 09:24:40;;;;;;;22.67;20.70;;;24.50;84.00;;;;;;5032720;28;20199;-48
2022/10/30 09:27:06;;;;;;;21.50;19.70;;;24.60;85.10;;;;;;5030019;28;20192;-46
2022/10/30 09:29:31;;;;;;;21.80;19.80;;;25.00;82.80;;;;;;5039604;28;20287;-49
2022/10/30 09:31:58;;;;;;;21.30;19.33;;;24.90;79.70;;;;;;5044360;28;20178;-50
2022/10/30 09:34:24;;;;;;;21.43;19.73;;;25.30;81.10;;;;;;5037307;28;20576;-48
2022/10/30 09:36:49;;;;;;;23.07;21.07;;;25.60;74.60;;;;;;5029125;28;20425;-52
2022/10/30 09:39:15;;;;;;;20.87;19.03;;;24.90;74.30;;;;;;5042225;28;20243;-47
2022/10/30 09:42:05;;;;;;;21.93;20.23;;;24.70;77.40;;;;;;5028656;28;20195;-50
2022/10/30 09:44:57;;;;;;;23.27;21.10;;;24.80;75.50;;;;;;5023192;28;20214;-51
2022/10/30 09:47:41;;;;;;;23.00;21.10;;;24.00;77.70;;;;;;5028661;28;20837;-47
2022/10/30 09:50:10;;;;;;;24.13;21.93;;;23.10;82.40;;;;;;5033247;28;20803;-51
2022/10/30 09:52:44;;;;;;;22.90;20.60;;;22.70;85.90;;;;;;5031797;28;20459;-47
2022/10/30 09:55:24;;;;;;;22.80;20.80;;;22.30;88.60;;;;;;5048209;28;20440;-47
2022/10/30 09:58:13;;;;;;;22.00;20.20;;;22.50;90.10;;;;;;5043423;28;20427;-50
2022/10/30 10:00:49;;;;;;;22.10;20.00;;;22.70;89.80;;;;;;5048992;28;20440;-47
2022/10/30 10:04:06;;;;;;;24.00;21.80;;;23.50;88.50;;;;;;5034189;28;20564;-48
2022/10/30 10:06:34;;;;;;;21.83;19.93;;;24.00;83.90;;;;;;5018612;28;20431;-52
2022/10/30 10:09:05;;;;;;;23.10;20.80;;;24.70;80.50;;;;;;5028762;28;20511;-50
2022/10/30 10:11:35;;;;;;;22.03;20.33;;;24.70;79.60;;;;;;5032744;28;20444;-48
2022/10/30 10:14:10;;;;;;;23.37;21.50;;;25.10;78.60;;;;;;5036190;28;20920;-49
2022/10/30 10:16:39;;;;;;;22.07;20.33;;;25.00;76.30;;;;;;5028096;28;20444;-47
2022/10/30 10:19:22;;;;;;;20.30;18.50;;;25.20;76.70;;;;;;5033856;28;20520;-46
2022/10/30 10:21:56;;;;;;;21.60;19.87;;;25.40;75.50;;;;;;5032015;28;20507;-49
2022/10/30 10:24:24;;;;;;;21.67;19.77;;;25.80;72.50;;;;;;5037288;28;20436;-53
2022/10/30 10:27:05;;;;;;;22.47;20.47;;;25.80;70.10;;;;;;5047141;28;20409;-50
2022/10/30 10:30:05;;;;;;;21.63;19.93;;;25.70;71.50;;;;;;5037556;28;20540;-46
2022/10/30 10:32:36;;;;;;;20.63;18.77;;;26.40;70.10;;;;;;5031702;28;20486;-47
2022/10/30 10:35:36;;;;;;;20.13;18.43;;;27.00;67.60;;;;;;5032927;28;20475;-45
2022/10/30 10:38:27;;;;;;;20.57;18.87;;;27.70;63.90;;;;;;5028571;28;20437;-47
2022/10/30 10:41:13;;;;;;;20.37;18.87;;;28.20;59.90;;;;;;5035727;28;20401;-46
2022/10/30 10:43:41;;;;;;;21.33;19.60;;;28.80;57.30;;;;;;5033005;28;20481;-46
2022/10/30 10:46:35;;;;;;;21.60;19.80;;;28.20;56.30;;;;;;5035010;28;20420;-50
2022/10/30 10:49:38;;;;;;;22.43;20.37;;;27.90;57.30;;;;;;5028015;28;20571;-49
2022/10/30 10:52:10;;;;;;;20.87;19.23;;;28.70;55.70;;;;;;5047295;28;20902;-46
2022/10/30 10:54:48;;;;;;;21.37;19.43;;;28.80;54.40;;;;;;5039754;28;20977;-50
2022/10/30 10:57:31;;;;;;;21.93;20.10;;;28.10;54.90;;;;;;5047170;28;20561;-45
2022/10/30 11:00:17;;;;;;;20.90;19.20;;;28.20;56.20;;;;;;5038759;28;20440;-50
2022/10/30 11:03:06;;;;;;;21.93;20.13;;;27.80;56.70;;;;;;5032356;28;21447;-48
2022/10/30 11:05:50;;;;;;;21.70;20.03;;;27.90;55.80;;;;;;5035610;28;20444;-48
2022/10/30 11:08:28;;;;;;;21.83;19.90;;;28.10;54.80;;;;;;5047726;28;20471;-44
2022/10/30 11:11:05;;;;;;;22.07;20.23;;;27.50;56.30;;;;;;5032463;28;20424;-45
2022/10/30 11:13:35;;;;;;;21.70;19.90;;;26.60;57.80;;;;;;5039500;28;21251;-45
2022/10/30 11:16:27;;;;;;;21.77;20.07;;;26.50;60.80;;;;;;5042035;28;20424;-50
2022/10/30 11:19:02;;;;;;;22.37;20.47;;;26.40;62.30;;;;;;5039723;28;20510;-46
2022/10/30 11:21:33;;;;;;;23.23;21.23;;;27.00;61.30;;;;;;5038480;28;20425;-50
2022/10/30 11:23:59;;;;;;;22.73;20.87;;;27.40;59.80;;;;;;5038203;28;20515;-45
2022/10/30 11:26:28;;;;;;;23.33;21.17;;;27.80;57.10;;;;;;5043694;28;20530;-51
2022/10/30 11:29:13;;;;;;;22.83;21.00;;;28.50;56.50;;;;;;5031200;28;20594;-50
2022/10/30 11:31:40;;;;;;;22.60;20.80;;;29.00;54.60;;;;;;5045883;28;20827;-47
2022/10/30 11:34:23;;;;;;;22.47;20.57;;;29.20;54.00;;;;;;5033975;28;20440;-51
2022/10/30 11:36:51;;;;;;;22.20;20.43;;;29.60;54.00;;;;;;5031857;28;20421;-46
2022/10/30 11:39:26;;;;;;;21.40;19.70;;;29.60;51.50;;;;;;5049042;28;20443;-49
2022/10/30 11:41:59;;;;;;;24.27;22.37;;;;;;;;;;5042045;28;20494;-49
2022/10/30 11:44:36;;;;;;;;;;;30.20;50.70;;;;;;5016632;28;20443;-48
2022/10/30 11:47:03;;;;;;;;;;;30.90;49.00;;;;;;5028425;28;19920;-47
2022/10/30 11:49:31;;;;;;;;;;;30.20;47.20;;;;;;5044106;28;19920;-51
2022/10/30 11:51:57;;;;;;;;;;;30.30;49.20;;;;;;5040388;28;19908;-48
2022/10/30 11:54:22;;;;;;;;;;;29.60;48.80;;;;;;5042986;28;19916;-52
2022/10/30 11:56:49;;;;;;;;;;;29.80;49.60;;;;;;5025457;28;139408;-49
2022/10/30 11:59:18;;;;;;;;;;;30.50;48.10;;;;;;5032576;28;20344;-47
2022/10/30 12:01:58;;;;;;;;;;;30.60;47.50;;;;;;5034046;28;19991;-44
2022/10/30 12:04:25;;;;;;;;;;;30.50;47.70;;;;;;5036077;28;19928;-49
2022/10/30 12:07:07;;;;;;;;;;;29.80;47.50;;;;;;5038198;28;19912;-46
2022/10/30 12:09:40;;;;;;;;;;;29.60;48.70;;;;;;5030748;28;20355;-45
2022/10/30 12:12:09;;;;;;;;;;;29.50;48.80;;;;;;5033921;28;19996;-45
2022/10/30 12:14:35;;;;;;;;;;;29.70;48.80;;;;;;5029794;28;19909;-50
2022/10/30 12:17:00;;;;;;;;;;;29.20;48.70;;;;;;5030697;28;19973;-45
2022/10/30 12:19:26;;;;;;;;;;;29.10;50.00;;;;;;5038827;28;19915;-48
2022/10/30 12:21:57;;;;;;;;;;;29.50;50.20;;;;;;5045747;28;20011;-50
2022/10/30 12:24:29;;;;;;;;;;;29.70;48.60;;;;;;5035412;28;19912;-45
2022/10/30 12:26:55;;;;;;;;;;;28.90;50.50;;;;;;5051343;28;19908;-48
2022/10/30 12:29:22;;;;;;;;;;;29.50;50.50;;;;;;5046472;28;20359;-46
2022/10/30 12:31:53;;;;;;;;;;;29.70;49.30;;;;;;5037448;28;19917;-48
2022/10/30 12:34:37;;;;;;;;;;;29.50;49.50;;;;;;5033366;28;19947;-45
2022/10/30 12:37:11;;;;;;;;;;;29.70;49.10;;;;;;5051252;28;19908;-50
2022/10/30 12:39:48;;;;;;;;;;;29.90;47.30;;;;;;5051236;28;19908;-45
2022/10/30 12:42:15;;;;;;;;;;;30.00;47.20;;;;;;5042612;28;19956;-48
2022/10/30 12:44:44;;;;;;;;;;;29.90;47.70;;;;;;5029956;28;19939;-47
2022/10/30 12:47:17;;;;;;;;;;;29.60;47.40;;;;;;5024105;28;19920;-50